Terminal Aerodrome Forecast
Issued by NWS Grand Rapids, MI

Home | Current Version | Previous Version | Text Only | Print | Product List | Glossary On
Versions: 1 2 3 4 5 6 7 8 9 10 11 12 13 14 15 16 17 18 19 20 21 22 23 24
000
FTUS43 KGRR 311740
TAFGRR
TAF
KGRR 311740Z 3118/0118 24007KT P6SM SCT025
     FM010300 00000KT 5SM BR SKC
     FM010900 00000KT 3/4SM BR BKN005
     FM011400 21004KT 5SM BR SCT010
     FM011600 22007KT P6SM SCT025=

USA.gov is the U.S. government's official web portal to all federal, state and local government web resources and services.